Time;durP1;ratioP1;P1;durP2;ratioP2;P2;SDS_P1;SDS_P2;PMS_P1;PMS_P2;Temp;Humidity;BMP_temperature;BMP_pressure;BME280_temperature;BME280_humidity;BME280_pressure;Samples;Min_cycle;Max_cycle;Signal;HPM_P1;HPM_P2
2022/06/08 00:00:13;;;;;;;1.55;1.45;;;8.00;99.90;;;;;;4923958;29;20039;-85
2022/06/08 00:02:41;;;;;;;0.00;0.00;;;8.00;99.90;;;;;;4952473;29;20043;-85
2022/06/08 00:05:08;;;;;;;0.60;0.60;;;8.00;99.90;;;;;;4943677;29;20094;-84
2022/06/08 00:07:34;;;;;;;0.08;0.08;;;8.00;99.90;;;;;;4955865;29;20455;-85
2022/06/08 00:10:00;;;;;;;0.20;0.20;;;8.00;99.90;;;;;;4924100;29;20047;-85
2022/06/08 00:12:26;;;;;;;0.00;0.00;;;8.10;99.90;;;;;;4940053;28;20046;-85
2022/06/08 00:14:52;;;;;;;0.40;0.40;;;8.10;99.90;;;;;;4956092;29;20043;-85
2022/06/08 00:17:18;;;;;;;0.15;0.15;;;8.10;99.90;;;;;;4955982;29;20561;-85
2022/06/08 00:19:44;;;;;;;0.03;0.03;;;8.00;99.90;;;;;;4940077;29;20094;-85
2022/06/08 00:22:10;;;;;;;0.10;0.10;;;8.00;99.90;;;;;;4939771;29;20431;-85
2022/06/08 00:24:35;;;;;;;0.10;0.10;;;8.00;99.90;;;;;;4938924;29;20043;-85
2022/06/08 00:27:02;;;;;;;0.10;0.10;;;8.00;99.90;;;;;;4955427;29;20052;-81
2022/06/08 00:29:28;;;;;;;0.10;0.10;;;8.00;99.90;;;;;;4923751;29;20039;-81
2022/06/08 00:31:53;;;;;;;0.00;0.00;;;8.00;99.90;;;;;;4929199;29;20486;-81
2022/06/08 00:34:19;;;;;;;0.10;0.10;;;8.00;99.90;;;;;;4952525;29;20118;-81
2022/06/08 00:36:45;;;;;;;0.00;0.00;;;8.00;99.90;;;;;;4951565;29;20055;-81
2022/06/08 00:39:10;;;;;;;0.17;0.17;;;7.90;99.90;;;;;;4940152;29;20035;-81
2022/06/08 00:41:39;;;;;;;0.05;0.05;;;7.90;99.90;;;;;;4939057;29;20070;-80
2022/06/08 00:44:19;;;;;;;0.05;0.05;;;7.90;99.90;;;;;;4955237;29;20055;-78
2022/06/08 00:46:46;;;;;;;0.20;0.20;;;8.00;99.90;;;;;;4939646;29;20405;-78
2022/06/08 00:49:21;;;;;;;0.10;0.10;;;8.00;99.90;;;;;;4932815;29;20036;-78
2022/06/08 00:51:47;;;;;;;0.00;0.00;;;8.60;99.90;;;;;;4935982;29;20056;-78
2022/06/08 00:54:21;;;;;;;0.10;0.10;;;7.90;99.90;;;;;;4936337;29;20387;-78
2022/06/08 00:56:52;;;;;;;0.10;0.10;;;8.00;99.90;;;;;;4931913;29;20047;-77
2022/06/08 00:59:17;;;;;;;0.00;0.00;;;7.90;99.90;;;;;;4938537;29;20051;-78
2022/06/08 01:01:43;;;;;;;0.13;0.13;;;8.10;99.90;;;;;;4951526;28;20105;-78
2022/06/08 01:04:17;;;;;;;0.00;0.00;;;8.00;99.90;;;;;;4939210;29;20134;-77
2022/06/08 01:06:46;;;;;;;0.00;0.00;;;8.00;99.90;;;;;;4943439;29;20052;-78
2022/06/08 01:09:41;;;;;;;0.08;0.08;;;8.70;99.90;;;;;;4935777;29;20047;-78
2022/06/08 01:12:19;;;;;;;0.32;0.32;;;8.10;99.90;;;;;;4936228;28;20494;-78
2022/06/08 01:14:47;;;;;;;0.00;0.00;;;8.20;99.90;;;;;;4925441;29;20050;-78
2022/06/08 01:17:16;;;;;;;0.15;0.15;;;8.10;99.90;;;;;;4935782;29;20046;-80
2022/06/08 01:19:44;;;;;;;0.20;0.20;;;8.30;99.90;;;;;;4953809;29;20043;-80
2022/06/08 01:22:13;;;;;;;0.00;0.00;;;8.30;99.90;;;;;;4938697;29;20046;-90
2022/06/08 01:24:40;;;;;;;0.10;0.10;;;8.40;99.90;;;;;;4954541;29;20039;-90
2022/06/08 01:27:28;;;;;;;0.13;0.13;;;8.40;99.90;;;;;;4950592;29;20073;-90
2022/06/08 01:30:07;;;;;;;0.30;0.30;;;8.50;99.90;;;;;;4923416;29;20126;-90
2022/06/08 01:32:46;;;;;;;0.10;0.10;;;8.60;99.90;;;;;;4935352;29;20035;-78
2022/06/08 01:35:12;;;;;;;0.10;0.10;;;8.70;99.90;;;;;;4934927;29;20082;-78
2022/06/08 01:37:40;;;;;;;0.08;0.08;;;8.80;99.90;;;;;;4935511;29;20097;-78
2022/06/08 01:40:30;;;;;;;0.00;0.00;;;8.90;99.90;;;;;;4935712;29;20051;-78
2022/06/08 01:43:14;;;;;;;0.10;0.10;;;9.00;99.90;;;;;;4946423;29;20594;-78
2022/06/08 01:46:13;;;;;;;0.00;0.00;;;9.20;99.90;;;;;;4940697;29;20051;-80
2022/06/08 01:48:58;;;;;;;0.40;0.40;;;9.30;99.90;;;;;;4950021;29;20080;-80
2022/06/08 01:51:38;;;;;;;0.65;0.30;;;9.40;99.90;;;;;;4919329;29;20130;-90
2022/06/08 01:54:22;;;;;;;0.10;0.10;;;9.50;99.90;;;;;;4948768;29;20035;-90
2022/06/08 01:56:51;;;;;;;0.68;0.30;;;9.50;99.90;;;;;;4954398;29;20466;-90
2022/06/08 01:59:29;;;;;;;0.00;0.00;;;9.40;99.90;;;;;;4937905;29;20043;-80
2022/06/08 02:02:25;;;;;;;0.60;0.32;;;9.30;99.90;;;;;;4954927;29;20489;-91
2022/06/08 02:05:12;;;;;;;0.30;0.30;;;9.20;99.90;;;;;;4953260;29;20082;-90
2022/06/08 02:07:51;;;;;;;0.00;0.00;;;9.20;99.90;;;;;;4954301;29;20102;-90
2022/06/08 02:10:23;;;;;;;0.20;0.20;;;9.10;99.90;;;;;;4938221;29;20043;-90
2022/06/08 02:12:56;;;;;;;0.35;0.35;;;9.10;99.90;;;;;;4938083;29;20070;-90
2022/06/08 02:15:30;;;;;;;0.50;0.50;;;9.10;99.90;;;;;;4954083;29;20090;-90
2022/06/08 02:17:59;;;;;;;0.20;0.20;;;9.10;99.90;;;;;;4954171;29;20047;-91
2022/06/08 02:20:39;;;;;;;0.10;0.10;;;9.20;99.90;;;;;;4954045;29;20086;-90
2022/06/08 02:23:18;;;;;;;0.05;0.05;;;9.20;99.90;;;;;;4952907;29;20457;-86
2022/06/08 02:25:53;;;;;;;0.00;0.00;;;9.20;99.90;;;;;;4945432;28;20040;-86
2022/06/08 02:28:27;;;;;;;0.10;0.10;;;9.20;99.90;;;;;;4934933;29;20047;-86
2022/06/08 02:31:00;;;;;;;0.00;0.00;;;9.30;99.90;;;;;;4966800;28;20039;-86
2022/06/08 02:36:24;;;;;;;0.00;0.00;;;9.30;99.90;;;;;;4955154;29;20051;-86
2022/06/08 02:39:05;;;;;;;0.20;0.20;;;9.40;99.90;;;;;;4929600;29;20056;-90
2022/06/08 02:41:32;;;;;;;0.00;0.00;;;9.30;99.90;;;;;;4934778;29;20102;-91
2022/06/08 02:44:05;;;;;;;0.28;0.28;;;9.30;99.90;;;;;;4950695;29;20489;-91
2022/06/08 02:46:54;;;;;;;0.00;0.00;;;9.30;99.90;;;;;;4970205;28;20054;-91
2022/06/08 02:49:19;;;;;;;0.30;0.30;;;9.20;99.90;;;;;;4973343;28;20494;-79
2022/06/08 02:51:48;;;;;;;0.30;0.30;;;9.20;99.90;;;;;;4949772;28;20055;-79
2022/06/08 02:54:18;;;;;;;0.20;0.20;;;9.20;99.90;;;;;;4950398;29;20035;-79
2022/06/08 02:57:23;;;;;;;0.10;0.10;;;9.20;99.90;;;;;;4957006;29;20429;-91
2022/06/08 02:59:54;;;;;;;0.05;0.05;;;9.20;99.90;;;;;;4957260;29;20047;-91
2022/06/08 03:02:28;;;;;;;0.43;0.30;;;9.20;99.90;;;;;;4973323;28;20043;-92
2022/06/08 03:04:58;;;;;;;0.45;0.45;;;9.20;99.90;;;;;;4973191;28;20054;-91
2022/06/08 03:07:29;;;;;;;0.20;0.20;;;9.30;99.90;;;;;;4957214;29;20094;-91
2022/06/08 03:09:57;;;;;;;0.00;0.00;;;9.30;99.90;;;;;;4957348;28;20047;-91
2022/06/08 03:12:33;;;;;;;0.20;0.20;;;9.30;99.90;;;;;;4957322;29;20367;-86
2022/06/08 03:15:04;;;;;;;0.10;0.10;;;9.30;99.90;;;;;;4956916;29;20102;-85
2022/06/08 03:17:32;;;;;;;0.20;0.20;;;9.30;99.90;;;;;;4957139;29;20043;-85
2022/06/08 03:19:59;;;;;;;0.20;0.20;;;9.30;99.90;;;;;;4958177;28;20079;-86
2022/06/08 03:22:26;;;;;;;0.10;0.10;;;9.30;99.90;;;;;;4956099;28;20035;-86
2022/06/08 03:24:52;;;;;;;0.00;0.00;;;9.20;99.90;;;;;;4956907;29;20043;-86
2022/06/08 03:27:17;;;;;;;0.55;0.55;;;9.30;99.90;;;;;;4956680;29;20486;-86
2022/06/08 03:29:43;;;;;;;0.43;0.43;;;9.20;99.90;;;;;;4924925;29;20079;-80
2022/06/08 03:32:09;;;;;;;0.73;0.30;;;9.30;99.90;;;;;;4972881;28;20050;-80
2022/06/08 03:34:35;;;;;;;0.00;0.00;;;9.50;99.90;;;;;;4940578;29;20047;-81
2022/06/08 03:37:01;;;;;;;0.20;0.20;;;9.40;99.90;;;;;;4940661;29;20436;-81
2022/06/08 03:39:27;;;;;;;0.35;0.20;;;9.50;99.90;;;;;;4956095;29;20043;-81
2022/06/08 03:41:53;;;;;;;0.35;0.35;;;9.70;99.90;;;;;;4956009;29;20093;-81
2022/06/08 03:44:18;;;;;;;0.17;0.17;;;9.80;99.90;;;;;;4925189;29;20390;-81
2022/06/08 03:46:51;;;;;;;0.10;0.10;;;9.90;99.90;;;;;;4940525;29;20047;-79
2022/06/08 03:49:18;;;;;;;0.35;0.25;;;10.00;99.90;;;;;;4949607;28;20059;-79
2022/06/08 03:51:45;;;;;;;0.20;0.20;;;10.10;99.90;;;;;;4950629;29;20494;-79
2022/06/08 03:54:16;;;;;;;4.57;0.43;;;10.20;99.90;;;;;;4937723;29;20091;-79
2022/06/08 03:56:45;;;;;;;0.10;0.10;;;10.20;99.90;;;;;;4956427;29;20078;-79
2022/06/08 03:59:11;;;;;;;1.65;0.95;;;10.40;99.90;;;;;;4955283;28;20047;-79
2022/06/08 04:01:37;;;;;;;0.38;0.30;;;10.40;99.90;;;;;;4919676;29;20044;-78
2022/06/08 04:04:03;;;;;;;0.05;0.05;;;10.50;99.90;;;;;;4932134;29;20047;-79
2022/06/08 04:06:29;;;;;;;0.03;0.03;;;10.60;99.90;;;;;;4972032;28;20405;-79
2022/06/08 04:08:55;;;;;;;1.25;0.82;;;10.60;99.90;;;;;;4939956;29;20047;-79
2022/06/08 04:11:21;;;;;;;0.38;0.38;;;10.70;99.90;;;;;;4956037;28;20385;-79
2022/06/08 04:13:47;;;;;;;0.15;0.15;;;10.90;99.90;;;;;;4971371;28;20437;-79
2022/06/08 04:16:15;;;;;;;1.05;0.98;;;11.10;99.90;;;;;;4975101;28;20053;-79
2022/06/08 04:18:41;;;;;;;1.45;0.57;;;11.30;99.90;;;;;;4940978;29;20047;-79
2022/06/08 04:21:09;;;;;;;0.03;0.03;;;11.50;99.90;;;;;;4955456;29;20109;-92
2022/06/08 04:23:36;;;;;;;0.00;0.00;;;11.50;99.90;;;;;;4955963;29;20138;-91
2022/06/08 04:26:03;;;;;;;0.28;0.28;;;11.60;99.90;;;;;;4939638;29;20039;-92
2022/06/08 04:28:30;;;;;;;0.13;0.10;;;11.60;99.90;;;;;;4929723;29;20046;-91
2022/06/08 04:30:56;;;;;;;0.10;0.10;;;11.60;99.90;;;;;;4936682;29;20130;-91
2022/06/08 04:33:22;;;;;;;0.22;0.22;;;11.60;99.90;;;;;;4936346;29;20542;-90
2022/06/08 04:35:48;;;;;;;0.45;0.43;;;11.70;99.90;;;;;;4920451;29;20047;-86
2022/06/08 04:38:15;;;;;;;0.10;0.10;;;11.80;99.90;;;;;;4944169;29;20071;-86
2022/06/08 04:40:41;;;;;;;0.17;0.17;;;11.80;99.90;;;;;;4920702;29;20052;-85
2022/06/08 04:43:08;;;;;;;0.10;0.10;;;11.90;99.90;;;;;;4936420;29;20450;-85
2022/06/08 04:45:35;;;;;;;0.32;0.32;;;12.00;99.90;;;;;;4949365;29;20486;-85
2022/06/08 04:48:02;;;;;;;1.77;0.55;;;12.20;99.90;;;;;;4938401;29;20047;-85
2022/06/08 04:50:28;;;;;;;0.55;0.45;;;12.30;99.90;;;;;;4954715;28;20051;-85
2022/06/08 04:52:54;;;;;;;0.43;0.43;;;12.40;99.90;;;;;;4971469;28;20370;-79
2022/06/08 04:55:22;;;;;;;0.45;0.45;;;12.50;99.90;;;;;;4955057;29;20045;-79
2022/06/08 04:57:48;;;;;;;0.60;0.60;;;12.60;99.90;;;;;;4939367;29;20126;-79
2022/06/08 05:00:17;;;;;;;0.20;0.20;;;12.60;99.90;;;;;;4947205;29;20046;-79
2022/06/08 05:02:44;;;;;;;0.50;0.50;;;12.70;99.90;;;;;;4922167;29;20036;-79
2022/06/08 05:05:24;;;;;;;0.03;0.03;;;12.80;99.90;;;;;;4904945;29;20391;-79
2022/06/08 05:07:50;;;;;;;0.82;0.82;;;12.90;99.90;;;;;;4920028;29;20082;-79
2022/06/08 05:10:16;;;;;;;0.32;0.32;;;13.00;99.90;;;;;;4935536;29;20543;-81
2022/06/08 05:12:43;;;;;;;0.50;0.50;;;13.00;99.90;;;;;;4942405;28;20038;-81
2022/06/08 05:15:23;;;;;;;1.77;0.63;;;13.10;99.90;;;;;;4963593;28;20359;-81
2022/06/08 05:17:49;;;;;;;0.20;0.20;;;13.10;99.90;;;;;;4952811;29;20039;-81
2022/06/08 05:20:16;;;;;;;0.50;0.50;;;13.20;99.90;;;;;;4919963;29;20044;-81
2022/06/08 05:22:44;;;;;;;0.82;0.73;;;13.30;99.90;;;;;;4942538;28;20093;-81
2022/06/08 05:25:14;;;;;;;0.47;0.45;;;13.40;99.90;;;;;;4954646;29;20047;-81
2022/06/08 05:27:40;;;;;;;1.13;1.13;;;13.50;99.90;;;;;;4954773;29;20082;-79
2022/06/08 05:30:08;;;;;;;0.73;0.73;;;13.60;99.90;;;;;;4954773;28;20149;-79
2022/06/08 05:32:34;;;;;;;0.85;0.65;;;13.90;99.90;;;;;;4936072;29;20462;-79
2022/06/08 05:35:00;;;;;;;0.85;0.55;;;14.90;99.90;;;;;;4919511;29;20039;-80
2022/06/08 05:37:26;;;;;;;0.20;0.20;;;15.70;99.90;;;;;;4935787;29;20062;-80
2022/06/08 05:39:51;;;;;;;0.38;0.38;;;16.10;99.90;;;;;;4935601;29;20110;-80
2022/06/08 05:42:17;;;;;;;1.02;0.93;;;16.20;99.90;;;;;;4945188;28;20098;-81
2022/06/08 05:44:43;;;;;;;1.65;1.23;;;16.20;99.90;;;;;;4937230;29;20386;-81
2022/06/08 05:47:08;;;;;;;1.67;0.40;;;16.30;99.90;;;;;;4923989;29;20052;-81
2022/06/08 05:49:34;;;;;;;2.28;2.17;;;16.60;99.90;;;;;;4952549;28;20055;-81
2022/06/08 05:52:01;;;;;;;3.03;0.43;;;17.30;99.90;;;;;;4938232;29;20040;-81
2022/06/08 05:54:28;;;;;;;1.48;0.32;;;17.40;99.90;;;;;;4954538;29;20464;-82
2022/06/08 05:56:54;;;;;;;2.72;0.90;;;17.40;99.90;;;;;;4955097;29;20398;-81
2022/06/08 05:59:19;;;;;;;1.20;0.60;;;17.30;99.90;;;;;;4954731;28;20043;-81
2022/06/08 06:01:45;;;;;;;0.80;0.35;;;17.20;99.90;;;;;;4934342;29;20047;-82
2022/06/08 06:04:11;;;;;;;0.50;0.40;;;17.10;99.90;;;;;;4938735;29;20074;-82
2022/06/08 06:06:38;;;;;;;0.85;0.85;;;17.00;99.90;;;;;;4936911;29;20131;-81
2022/06/08 06:09:04;;;;;;;0.30;0.30;;;17.10;99.90;;;;;;4928823;29;20044;-82
2022/06/08 06:11:30;;;;;;;1.40;1.10;;;17.10;99.90;;;;;;4934910;29;20040;-81
2022/06/08 06:13:57;;;;;;;0.43;0.43;;;17.50;99.90;;;;;;4941269;28;20043;-81
2022/06/08 06:16:25;;;;;;;0.40;0.40;;;17.70;99.90;;;;;;4943047;28;20474;-91
2022/06/08 06:18:51;;;;;;;1.33;0.55;;;17.70;99.90;;;;;;4939759;29;20091;-92
2022/06/08 06:21:25;;;;;;;0.65;0.65;;;17.60;99.90;;;;;;4955299;28;20110;-93
2022/06/08 06:24:02;;;;;;;0.22;0.22;;;17.50;99.90;;;;;;4960141;29;20187;-92
2022/06/08 06:26:29;;;;;;;0.40;0.40;;;17.60;99.90;;;;;;4959077;29;20517;-93
2022/06/08 06:28:56;;;;;;;0.60;0.25;;;17.60;99.90;;;;;;4956273;29;20043;-93
2022/06/08 06:31:32;;;;;;;1.67;1.10;;;17.60;99.90;;;;;;4961621;28;20058;-92
2022/06/08 06:33:58;;;;;;;0.50;0.20;;;17.60;99.90;;;;;;4959799;29;20058;-84
2022/06/08 06:36:24;;;;;;;0.30;0.30;;;17.80;99.90;;;;;;4932573;29;20051;-83
2022/06/08 06:38:50;;;;;;;0.20;0.20;;;17.90;99.90;;;;;;4962410;28;20043;-83
2022/06/08 06:41:16;;;;;;;2.08;1.88;;;17.80;99.90;;;;;;4955577;29;20039;-84
2022/06/08 06:43:42;;;;;;;0.57;0.57;;;17.70;99.90;;;;;;4940873;29;20047;-83
2022/06/08 06:46:10;;;;;;;1.85;0.75;;;17.50;99.90;;;;;;4951927;29;20122;-83
2022/06/08 06:48:36;;;;;;;0.85;0.55;;;17.50;99.90;;;;;;4956751;29;20035;-84
2022/06/08 06:51:06;;;;;;;1.95;0.50;;;17.40;99.90;;;;;;4957550;29;20421;-84
2022/06/08 06:53:31;;;;;;;0.47;0.20;;;17.30;99.90;;;;;;4945214;29;20043;-84
2022/06/08 06:55:57;;;;;;;0.45;0.45;;;17.20;99.90;;;;;;4941245;29;20485;-83
2022/06/08 06:58:24;;;;;;;0.20;0.20;;;17.10;99.90;;;;;;4927198;29;20692;-84
2022/06/08 07:00:49;;;;;;;0.20;0.20;;;17.10;99.90;;;;;;4952542;29;20067;-83
2022/06/08 07:03:15;;;;;;;0.70;0.70;;;17.10;99.90;;;;;;4956133;29;20047;-83
2022/06/08 07:05:41;;;;;;;0.00;0.00;;;17.00;99.90;;;;;;4960619;28;20047;-80
2022/06/08 07:08:07;;;;;;;0.73;0.73;;;17.00;99.90;;;;;;4952090;29;20047;-80
2022/06/08 07:10:33;;;;;;;0.80;0.80;;;17.00;99.90;;;;;;4950993;29;20470;-79
2022/06/08 07:12:59;;;;;;;0.45;0.45;;;17.00;99.90;;;;;;4959635;28;20038;-79
2022/06/08 07:15:26;;;;;;;1.40;0.52;;;16.90;99.90;;;;;;4955821;28;20074;-79
2022/06/08 07:17:53;;;;;;;0.00;0.00;;;16.90;99.90;;;;;;4948641;29;20039;-79
2022/06/08 07:20:19;;;;;;;0.57;0.45;;;16.90;99.90;;;;;;4992145;23;20046;-86
2022/06/08 07:22:46;;;;;;;1.42;1.33;;;16.90;99.90;;;;;;5015159;28;20046;-82
2022/06/08 07:25:13;;;;;;;0.43;0.43;;;16.90;99.90;;;;;;5014058;28;20087;-81
2022/06/08 07:27:40;;;;;;;0.13;0.13;;;16.90;99.90;;;;;;4998656;28;20052;-81
2022/06/08 07:30:07;;;;;;;0.40;0.40;;;17.00;99.90;;;;;;4997201;28;20038;-81
2022/06/08 07:32:34;;;;;;;0.68;0.68;;;17.20;99.90;;;;;;5015235;28;20396;-81
2022/06/08 07:35:02;;;;;;;0.20;0.20;;;17.50;99.90;;;;;;4989988;28;20096;-81
2022/06/08 07:37:28;;;;;;;0.55;0.55;;;17.80;99.90;;;;;;5013804;28;20042;-81
2022/06/08 07:39:54;;;;;;;0.05;0.05;;;18.10;99.90;;;;;;5014687;28;20145;-81
2022/06/08 07:42:21;;;;;;;0.43;0.43;;;18.40;99.90;;;;;;5012784;28;20041;-81
2022/06/08 07:44:47;;;;;;;1.13;0.75;;;18.50;99.90;;;;;;4996830;28;20038;-81
2022/06/08 07:47:13;;;;;;;0.20;0.20;;;18.80;99.90;;;;;;4992805;28;20034;-81
2022/06/08 07:49:39;;;;;;;2.10;0.73;;;18.60;99.90;;;;;;4987316;28;20048;-81
2022/06/08 07:52:14;;;;;;;0.15;0.15;;;18.80;99.90;;;;;;5012355;28;20038;-81
2022/06/08 07:54:41;;;;;;;0.35;0.35;;;19.50;99.90;;;;;;5013455;28;20042;-81
2022/06/08 07:57:08;;;;;;;0.45;0.45;;;19.60;99.90;;;;;;5014629;28;20038;-88
2022/06/08 07:59:36;;;;;;;0.82;0.38;;;20.50;99.90;;;;;;5009383;28;20512;-88
2022/06/08 08:02:04;;;;;;;0.05;0.05;;;21.60;99.90;;;;;;5003836;28;20144;-89
2022/06/08 08:04:30;;;;;;;0.03;0.03;;;22.60;99.90;;;;;;5013754;28;20570;-89
2022/06/08 08:06:56;;;;;;;0.22;0.22;;;23.60;99.90;;;;;;4997697;28;20037;-89
2022/06/08 08:09:23;;;;;;;0.93;0.90;;;24.30;99.90;;;;;;4985259;28;20073;-88
2022/06/08 08:11:52;;;;;;;1.52;0.55;;;24.30;99.90;;;;;;4998274;28;20392;-88
2022/06/08 08:14:20;;;;;;;0.25;0.25;;;24.50;99.90;;;;;;5013681;28;20403;-81
2022/06/08 08:16:47;;;;;;;0.30;0.30;;;24.00;99.90;;;;;;5013779;28;20061;-81
2022/06/08 08:19:19;;;;;;;1.15;0.55;;;23.60;99.90;;;;;;5012050;28;20042;-81
2022/06/08 08:21:48;;;;;;;0.38;0.30;;;23.10;99.90;;;;;;5004869;28;20046;-81
2022/06/08 08:24:15;;;;;;;0.10;0.10;;;22.70;99.90;;;;;;4978159;28;20042;-81
2022/06/08 08:26:44;;;;;;;1.23;0.40;;;22.40;99.90;;;;;;5006340;28;20486;-81
2022/06/08 08:29:10;;;;;;;2.75;0.85;;;22.10;99.90;;;;;;5013357;28;20042;-81
2022/06/08 08:31:39;;;;;;;0.20;0.20;;;21.90;99.90;;;;;;5014583;28;20444;-81
2022/06/08 08:34:06;;;;;;;0.10;0.10;;;21.90;99.90;;;;;;4997799;28;20037;-81
2022/06/08 08:36:31;;;;;;;0.20;0.20;;;22.10;99.90;;;;;;5008628;28;20519;-78
2022/06/08 08:39:00;;;;;;;0.10;0.10;;;22.80;99.90;;;;;;5013586;28;20041;-79
2022/06/08 08:44:27;;;;;;;0.52;0.52;;;23.30;99.90;;;;;;5013355;28;20065;-79
2022/06/08 08:47:18;;;;;;;0.32;0.32;;;23.30;99.90;;;;;;5009712;28;20417;-79
2022/06/08 08:49:51;;;;;;;0.10;0.10;;;23.30;99.90;;;;;;4994848;28;20132;-79
2022/06/08 08:52:34;;;;;;;0.00;0.00;;;23.60;99.90;;;;;;4994163;28;20132;-79
2022/06/08 08:55:35;;;;;;;0.00;0.00;;;23.80;99.90;;;;;;4994417;28;20034;-81
2022/06/08 08:58:10;;;;;;;0.10;0.10;;;25.10;99.90;;;;;;5005140;28;20050;-79
2022/06/08 09:00:42;;;;;;;0.40;0.35;;;25.20;99.90;;;;;;5011776;28;20547;-79
2022/06/08 09:03:28;;;;;;;0.00;0.00;;;25.10;99.90;;;;;;5012850;28;20042;-88
2022/06/08 09:06:00;;;;;;;0.10;0.10;;;24.70;99.90;;;;;;5012615;28;20042;-88
2022/06/08 09:08:27;;;;;;;0.10;0.10;;;24.40;99.90;;;;;;5012938;28;20100;-87
2022/06/08 09:10:56;;;;;;;0.10;0.10;;;24.50;99.90;;;;;;4996411;28;20033;-88
2022/06/08 09:13:30;;;;;;;0.28;0.28;;;24.40;99.90;;;;;;5013165;28;20096;-88
2022/06/08 09:15:59;;;;;;;0.00;0.00;;;24.00;99.90;;;;;;4996572;28;20046;-88
2022/06/08 09:18:36;;;;;;;0.17;0.17;;;23.40;99.90;;;;;;4988574;28;20077;-88
2022/06/08 09:21:40;;;;;;;0.20;0.20;;;22.80;99.90;;;;;;5010260;28;20411;-86
2022/06/08 09:24:21;;;;;;;0.00;0.00;;;22.20;99.90;;;;;;5007877;28;20097;-86
2022/06/08 09:26:47;;;;;;;0.00;0.00;;;21.70;99.90;;;;;;4990752;28;20037;-86
2022/06/08 09:29:18;;;;;;;0.10;0.10;;;21.50;99.90;;;;;;4996597;28;20099;-86
2022/06/08 09:31:45;;;;;;;0.30;0.30;;;21.60;99.90;;;;;;5012755;28;20053;-86
2022/06/08 09:34:25;;;;;;;0.10;0.10;;;21.80;99.90;;;;;;5012959;28;20073;-86
2022/06/08 09:37:12;;;;;;;0.25;0.25;;;22.10;99.90;;;;;;5012584;28;20046;-87
2022/06/08 09:39:42;;;;;;;0.10;0.10;;;22.60;99.90;;;;;;5012452;28;20052;-87
2022/06/08 09:42:30;;;;;;;0.00;0.00;;;23.10;99.90;;;;;;4999245;28;20050;-87
2022/06/08 09:45:34;;;;;;;0.30;0.30;;;24.30;99.90;;;;;;4999264;28;20038;-87
2022/06/08 09:53:53;;;;;;;;;;;23.50;99.90;;;;;;5012977;28;20124;-86
2022/06/08 09:56:39;;;;;;;3.03;0.63;;;24.00;99.90;;;;;;4998797;28;20008;-86
2022/06/08 09:59:23;;;;;;;0.65;0.45;;;24.30;99.90;;;;;;4999823;28;20049;-86
2022/06/08 10:01:59;;;;;;;0.20;0.20;;;24.60;99.90;;;;;;5014327;28;20065;-86
2022/06/08 10:04:37;;;;;;;;;;;24.60;99.90;;;;;;4997265;28;20489;-86
2022/06/08 10:07:20;;;;;;;0.00;0.00;;;24.60;99.90;;;;;;5013691;28;19917;-86
2022/06/08 10:10:23;;;;;;;0.00;0.00;;;24.90;99.90;;;;;;5000572;28;20492;-89
2022/06/08 10:12:55;;;;;;;0.00;0.00;;;25.50;99.90;;;;;;4980523;28;20038;-90
2022/06/08 10:15:45;;;;;;;0.10;0.10;;;25.60;99.90;;;;;;5005682;28;20077;-89
2022/06/08 10:18:22;;;;;;;0.15;0.15;;;25.40;99.90;;;;;;5016146;28;20034;-89
2022/06/08 10:20:55;;;;;;;0.10;0.10;;;25.20;99.90;;;;;;5015878;28;20495;-89
2022/06/08 10:23:24;;;;;;;0.20;0.20;;;24.70;99.90;;;;;;5007443;28;20399;-90
2022/06/08 10:26:03;;;;;;;0.30;0.25;;;24.20;99.90;;;;;;4990488;28;20096;-89
2022/06/08 10:28:38;;;;;;;0.10;0.10;;;23.80;99.90;;;;;;5012022;28;20048;-89
2022/06/08 10:31:19;;;;;;;0.08;0.08;;;23.40;99.90;;;;;;5009037;28;20038;-89
2022/06/08 10:34:03;;;;;;;0.10;0.10;;;22.80;99.90;;;;;;5008031;28;20473;-88
2022/06/08 10:36:33;;;;;;;0.70;0.70;;;22.30;99.90;;;;;;5008934;28;20049;-88
2022/06/08 10:39:02;;;;;;;0.17;0.10;;;22.00;99.90;;;;;;4982660;28;20050;-90
2022/06/08 10:44:48;;;;;;;0.15;0.15;;;20.80;99.90;;;;;;5013195;28;20534;-88
2022/06/08 10:47:13;;;;;;;0.57;0.45;;;20.10;99.90;;;;;;4999215;28;20049;-87
2022/06/08 10:49:39;;;;;;;0.47;0.47;;;19.90;99.90;;;;;;5015500;28;20050;-87
2022/06/08 10:52:20;;;;;;;0.25;0.25;;;18.90;99.90;;;;;;5014755;28;20069;-87
2022/06/08 10:54:57;;;;;;;0.30;0.30;;;18.30;99.90;;;;;;5013087;28;20033;-87
2022/06/08 10:57:35;;;;;;;0.03;0.03;;;17.90;99.90;;;;;;5012595;28;20033;-87
2022/06/08 11:00:19;;;;;;;0.55;0.47;;;17.60;99.90;;;;;;5014149;28;20120;-88
2022/06/08 11:03:02;;;;;;;0.20;0.20;;;17.60;99.90;;;;;;5012638;28;20039;-87
2022/06/08 11:05:44;;;;;;;0.10;0.10;;;17.60;99.90;;;;;;5015002;28;20045;-88
2022/06/08 11:08:10;;;;;;;0.10;0.05;;;17.70;99.90;;;;;;5014042;28;20073;-87
2022/06/08 11:10:45;;;;;;;0.03;0.03;;;17.80;99.90;;;;;;5014807;28;20073;-88
2022/06/08 11:13:23;;;;;;;0.10;0.10;;;17.80;99.90;;;;;;5011918;28;20066;-88
2022/06/08 11:16:13;;;;;;;0.35;0.35;;;17.80;99.90;;;;;;5013180;28;20096;-82
2022/06/08 11:18:56;;;;;;;0.25;0.25;;;17.70;99.90;;;;;;4999529;28;20064;-82
2022/06/08 11:21:42;;;;;;;0.15;0.15;;;17.60;99.90;;;;;;5014799;28;20615;-82
2022/06/08 11:24:11;;;;;;;;;;;17.50;99.90;;;;;;5014337;28;20049;-82
2022/06/08 11:26:37;;;;;;;0.05;0.05;;;17.50;99.90;;;;;;5015005;28;19923;-82
2022/06/08 11:29:18;;;;;;;0.00;0.00;;;17.40;99.90;;;;;;5015069;28;20384;-81
2022/06/08 11:31:43;;;;;;;0.00;0.00;;;17.40;99.90;;;;;;5014810;28;20041;-82
2022/06/08 11:34:18;;;;;;;0.10;0.10;;;17.30;99.90;;;;;;4998369;28;20041;-79
2022/06/08 11:36:55;;;;;;;0.93;0.60;;;17.20;99.90;;;;;;4998577;28;20156;-79
2022/06/08 11:39:21;;;;;;;0.10;0.10;;;17.10;99.90;;;;;;5014789;28;20373;-79
2022/06/08 11:42:25;;;;;;;0.03;0.03;;;17.20;99.90;;;;;;5009239;28;20068;-79
2022/06/08 11:45:18;;;;;;;1.92;1.42;;;17.40;99.90;;;;;;5012094;28;20041;-79
2022/06/08 11:48:15;;;;;;;0.20;0.20;;;18.00;99.90;;;;;;4991669;28;20346;-79
2022/06/08 11:50:47;;;;;;;0.20;0.20;;;18.50;99.90;;;;;;5014875;28;20114;-89
2022/06/08 11:53:35;;;;;;;0.45;0.43;;;19.00;99.90;;;;;;5007398;28;20042;-89
2022/06/08 11:56:22;;;;;;;0.38;0.38;;;19.50;99.90;;;;;;4997442;28;20064;-89
2022/06/08 11:58:53;;;;;;;1.17;0.20;;;20.10;99.90;;;;;;5010124;28;20042;-89
2022/06/08 12:01:22;;;;;;;0.10;0.10;;;20.60;99.90;;;;;;4978805;28;20118;-90
2022/06/08 12:03:58;;;;;;;0.28;0.25;;;21.20;99.90;;;;;;5013377;28;20438;-90
2022/06/08 12:06:29;;;;;;;0.13;0.13;;;21.60;99.90;;;;;;4997814;28;20030;-90
2022/06/08 12:09:00;;;;;;;0.30;0.30;;;21.90;99.90;;;;;;5015924;28;20400;-89
2022/06/08 12:11:29;;;;;;;0.40;0.40;;;21.80;99.90;;;;;;5011832;28;20515;-90
2022/06/08 12:14:26;;;;;;;0.35;0.35;;;21.80;99.90;;;;;;4978611;28;20139;-90
2022/06/08 12:17:01;;;;;;;0.30;0.30;;;21.70;99.90;;;;;;5012783;28;20057;-90
2022/06/08 12:19:30;;;;;;;0.32;0.32;;;21.60;99.90;;;;;;5013406;28;20058;-90
2022/06/08 12:22:15;;;;;;;0.38;0.38;;;21.40;99.90;;;;;;4995399;28;20196;-90
2022/06/08 12:24:41;;;;;;;0.45;0.30;;;21.30;99.90;;;;;;5010848;28;20049;-82
2022/06/08 12:27:24;;;;;;;0.00;0.00;;;21.20;99.90;;;;;;5012839;28;20396;-82
2022/06/08 12:29:59;;;;;;;0.35;0.35;;;21.00;99.90;;;;;;5013561;28;20058;-82
2022/06/08 12:32:36;;;;;;;1.05;0.95;;;20.70;99.90;;;;;;5013723;28;20034;-81
2022/06/08 12:35:05;;;;;;;0.45;0.35;;;20.50;99.90;;;;;;5009496;28;20046;-82
2022/06/08 12:37:36;;;;;;;0.57;0.57;;;20.30;99.90;;;;;;4994788;28;20037;-82
2022/06/08 12:40:17;;;;;;;0.10;0.10;;;20.10;99.90;;;;;;5012520;28;20041;-81
2022/06/08 12:43:06;;;;;;;0.47;0.30;;;20.00;99.90;;;;;;5012620;28;20041;-82
2022/06/08 12:45:38;;;;;;;0.00;0.00;;;20.00;99.90;;;;;;4989750;28;20050;-81
2022/06/08 12:48:26;;;;;;;0.28;0.22;;;19.90;99.90;;;;;;5013421;28;20121;-82
2022/06/08 12:50:54;;;;;;;0.38;0.35;;;19.20;99.90;;;;;;4996679;28;20042;-81
2022/06/08 12:53:21;;;;;;;0.43;0.43;;;19.00;99.90;;;;;;4988925;28;20034;-81
2022/06/08 12:55:46;;;;;;;1.17;1.08;;;18.40;99.90;;;;;;4989819;28;20040;-82
2022/06/08 12:58:12;;;;;;;0.30;0.30;;;18.10;99.90;;;;;;4994134;28;20484;-82
2022/06/08 13:00:46;;;;;;;0.47;0.47;;;17.90;99.90;;;;;;5013251;28;20053;-82
2022/06/08 13:03:25;;;;;;;0.30;0.30;;;17.60;99.90;;;;;;5012864;28;20050;-82
2022/06/08 13:05:51;;;;;;;1.17;1.08;;;17.30;99.90;;;;;;5012091;28;20403;-81
2022/06/08 13:08:20;;;;;;;1.08;0.50;;;17.00;99.90;;;;;;4974555;28;20069;-81
2022/06/08 13:10:50;;;;;;;1.00;0.88;;;16.90;99.90;;;;;;5004420;28;20551;-82
2022/06/08 13:13:29;;;;;;;0.98;0.88;;;16.90;99.90;;;;;;5009226;28;20096;-79
2022/06/08 13:15:58;;;;;;;0.63;0.60;;;16.90;99.90;;;;;;5013315;28;20108;-79
2022/06/08 13:18:28;;;;;;;0.60;0.60;;;16.90;99.90;;;;;;5012787;28;20042;-79
2022/06/08 13:20:55;;;;;;;0.45;0.45;;;17.00;99.90;;;;;;5000967;23;20109;-79
2022/06/08 13:23:22;;;;;;;0.80;0.35;;;17.10;99.90;;;;;;4989490;28;20134;-79
2022/06/08 13:25:50;;;;;;;0.38;0.35;;;17.30;99.90;;;;;;4937719;29;20046;-79
2022/06/08 13:28:23;;;;;;;0.40;0.40;;;17.40;99.90;;;;;;4970105;28;20039;-79